Athina, Greece

12:47 AM EET on March 06, 2015 (GMT +0200)
APRSWXNET | Change Station
CLOSE
Current Station
Personal Weather Station
Location: Athens,
Elevation: 262 ft
Nearby Weather Stations

Elev 262 ft 37.96 °N, 23.72 °E | Updated 25 days ago

Mostly Cloudy
Mostly Cloudy
59 °F
Feels Like 59 °F
N
15
Wind Variable Wind from South
Gusts 22 mph

Today
High -- | Low -- °F
--% Chance of Precip.
Yesterday
High -- | Low -- °F
Precip. -- in
6:50 AM 6:23 PM
Full, 100% visible
Pressure 30.01 in
Visibility 6.2 miles
Clouds Few 2000 ft
Mostly Cloudy 3000 ft
Mostly Cloudy 7000 ft
Dew Point 51 °F
Humidity 75%
Rainfall in
Snow Depth Not available.
UV 0 out of 12
Pollen Not available.
Air Quality Not available.
Flu Activity Not available.
METAR LGAV 052220Z 14008KT 9999 FEW020 BKN030 BKN070 15/11 Q1016 NOSIG

More Conditions Fewer Conditions

Pressure 30.01 in
Visibility 6.2 miles
Clouds Few 2000 ft
Mostly Cloudy 3000 ft
Mostly Cloudy 7000 ft
Dew Point 51 °F
Humidity 75%
Rainfall in
Snow Depth Not available.
UV 0 out of 12
Pollen Not available.
Air Quality Not available.
Flu Activity Not available.
METAR LGAV 052220Z 14008KT 9999 FEW020 BKN030 BKN070 15/11 Q1016 NOSIG

More Conditions Fewer Conditions

10-Day Weather Forecast

Almanac

Astronomy

Mar. 06, 2015 Rise Set
Actual Time
Civil Twilight
Nautical Twilight
Astronomical Twilight
Moon
Length of Visible Light
Length of Day
Tomorrow will be .
, % of the Moon is Illuminated

Today's Extremes

Country Highs Country Lows

Community

WunderPhotos

Upload Photos

1,803,036 photos uploaded!

WunderBlogs® & News

Nearby

Air Quality

  Air Quality AQ Index Pollutant
Not available.

Snow Depth

Station Depth Elevation

Earthquake Activity

City Distance Mag. Time & Date
Minimum magnitude displayed is 2.5.

Coastal Water Temperatures

Place Temperature

Nearby Weather Stations